Rolling Hills, Wyoming
Current Conditions -  °F | °C
As of 1:53 PM on Thursday 20 Nov 2014 (Local Time) from KCPR Reporting Station
Clear Clear  
Wind Chill: 37°   Ceiling: Unl
Heat Index: 44°   Visibility: 10mi
Dew Point: 20°   Wind: 16mph
Humidity: 38%   Direction: 210°SSW
Pressure: 29.92"   Gusts: NA
Location:  43.0973°N, 105.88°W
Report Text: KCPR 202053Z 21014KT 10SM CLR 07/M07 A2992 RMK AO2 SLP148 T00671067 56013
Loading
Personal Weather Stations






























Interactive Weather Map New forecast layout! Learn more

10-Day Weather Forecast

Advertisements
Track Severe Weather on mobile